createdAt,value
2022-09-10T00:00:44.434Z,9.35
2022-09-10T00:05:51.486Z,9.85
2022-09-10T00:11:05.128Z,10.40
2022-09-10T00:16:11.092Z,10.98
2022-09-10T00:21:17.499Z,11.63
2022-09-10T00:26:29.318Z,11.25
2022-09-10T00:31:34.739Z,12.65
2022-09-10T00:36:43.897Z,12.63
2022-09-10T00:41:48.079Z,12.88
2022-09-10T00:46:51.605Z,12.13
2022-09-10T00:51:54.422Z,14.18
2022-09-10T00:57:02.556Z,13.93
2022-09-10T01:02:07.258Z,13.43
2022-09-10T01:07:29.299Z,12.98
2022-09-10T01:12:49.359Z,13.30
2022-09-10T01:18:22.266Z,13.02
2022-09-10T01:23:39.687Z,13.18
2022-09-10T01:29:14.880Z,12.30
2022-09-10T01:34:22.421Z,13.45
2022-09-10T01:39:27.446Z,14.90
2022-09-10T01:44:48.399Z,15.20
2022-09-10T01:50:19.443Z,14.77
2022-09-10T01:55:30.058Z,15.18
2022-09-10T02:00:36.959Z,15.25
2022-09-10T02:05:42.248Z,15.85
2022-09-10T02:10:52.825Z,15.13
2022-09-10T02:15:59.911Z,14.98
2022-09-10T02:21:09.166Z,16.38
2022-09-10T02:26:12.062Z,14.70
2022-09-10T02:31:16.299Z,16.63
2022-09-10T02:36:21.080Z,16.92
2022-09-10T02:41:26.189Z,16.65
2022-09-10T02:46:32.830Z,16.52
2022-09-10T02:51:38.873Z,17.58
2022-09-10T02:56:43.304Z,16.75
2022-09-10T03:01:48.351Z,16.20
2022-09-10T03:06:53.521Z,17.10
2022-09-10T03:12:00.374Z,18.25
2022-09-10T03:17:03.119Z,19.00
2022-09-10T03:22:07.186Z,18.25
2022-09-10T03:27:12.144Z,17.50
2022-09-10T03:32:14.425Z,17.63
2022-09-10T03:37:16.910Z,18.52
2022-09-10T03:42:23.455Z,21.85
2022-09-10T03:47:27.761Z,19.45
2022-09-10T03:52:32.768Z,20.02
2022-09-10T03:57:34.617Z,21.17
2022-09-10T04:02:37.231Z,21.67
2022-09-10T04:07:39.427Z,21.30
2022-09-10T04:12:41.219Z,20.92
2022-09-10T04:17:54.997Z,22.48
2022-09-10T04:23:02.991Z,21.90
2022-09-10T04:28:11.724Z,21.30
2022-09-10T04:33:19.872Z,21.10
2022-09-10T04:38:23.512Z,20.92
2022-09-10T04:43:29.412Z,18.73
2022-09-10T04:48:37.131Z,21.45
2022-09-10T04:53:40.828Z,20.58
2022-09-10T04:58:46.796Z,20.63
2022-09-10T05:03:51.677Z,20.17
2022-09-10T05:08:58.944Z,19.05
2022-09-10T05:14:07.872Z,21.08
2022-09-10T05:19:17.650Z,23.20
2022-09-10T05:24:35.762Z,24.20
2022-09-10T05:29:45.431Z,24.35
2022-09-10T05:34:48.921Z,23.77
2022-09-10T05:39:51.190Z,26.58
2022-09-10T05:44:54.375Z,27.23
2022-09-10T05:50:02.613Z,31.25
2022-09-10T05:55:11.373Z,29.88
2022-09-10T06:00:15.761Z,29.23
2022-09-10T06:05:25.075Z,29.25
2022-09-10T06:10:30.639Z,30.70
2022-09-10T06:15:35.481Z,31.77
2022-09-10T06:20:37.640Z,32.85
2022-09-10T06:25:41.799Z,30.23
2022-09-10T06:30:46.601Z,31.88
2022-09-10T06:35:55.750Z,29.98
2022-09-10T06:41:04.872Z,30.73
2022-09-10T06:46:51.189Z,31.75
2022-09-10T06:51:45.708Z,31.75
2022-09-10T06:56:49.406Z,31.75
2022-09-10T07:01:51.585Z,31.38
2022-09-10T07:06:57.794Z,34.20
2022-09-10T07:12:09.480Z,30.60
2022-09-10T07:17:21.071Z,32.08
2022-09-10T07:22:25.988Z,29.23
2022-09-10T07:27:30.192Z,32.35
2022-09-10T07:32:36.724Z,30.23
2022-09-10T07:37:49.037Z,28.30
2022-09-10T07:42:52.479Z,28.55
2022-09-10T07:47:56.269Z,29.30
2022-09-10T07:53:01.433Z,30.10
2022-09-10T07:58:08.233Z,29.70
2022-09-10T08:03:18.267Z,28.02
2022-09-10T08:08:27.301Z,26.42
2022-09-10T08:13:35.309Z,26.15
2022-09-10T08:18:38.634Z,24.70
2022-09-10T08:23:54.015Z,24.98
2022-09-10T08:28:58.630Z,24.83
2022-09-10T08:34:06.627Z,21.77
2022-09-10T08:39:15.380Z,23.40
2022-09-10T08:44:40.146Z,21.02
2022-09-10T08:49:44.966Z,21.17
2022-09-10T08:55:02.656Z,22.23
2022-09-10T09:00:10.392Z,21.60
2022-09-10T09:05:20.180Z,21.63
2022-09-10T09:10:24.813Z,20.77
2022-09-10T09:15:33.587Z,19.60
2022-09-10T09:20:57.298Z,20.77
2022-09-10T09:26:10.972Z,19.15
2022-09-10T09:31:18.391Z,16.02
2022-09-10T09:36:31.177Z,16.90
2022-09-10T09:41:55.814Z,17.02
2022-09-10T09:47:00.544Z,17.67
2022-09-10T09:52:19.707Z,18.08
2022-09-10T09:57:22.748Z,17.52
2022-09-10T10:02:30.460Z,18.67
2022-09-10T10:07:38.669Z,19.23
2022-09-10T10:12:43.118Z,18.52
2022-09-10T10:17:47.284Z,18.35
2022-09-10T10:22:54.191Z,17.38
2022-09-10T10:28:03.542Z,18.15
2022-09-10T10:33:05.287Z,15.07
2022-09-10T10:38:34.395Z,15.73
2022-09-10T10:44:23.498Z,15.75
2022-09-10T10:49:47.280Z,14.35
2022-09-10T10:55:03.906Z,14.07
2022-09-10T11:00:13.408Z,13.27
2022-09-10T11:05:25.765Z,14.20
2022-09-10T11:10:47.965Z,13.90
2022-09-10T11:15:53.711Z,13.65
2022-09-10T11:21:37.617Z,12.20
2022-09-10T11:26:54.734Z,14.02
2022-09-10T11:32:00.799Z,11.82
2022-09-10T11:37:05.617Z,13.02
2022-09-10T11:42:19.719Z,10.48
2022-09-10T11:47:31.384Z,13.90
2022-09-10T11:52:35.173Z,12.35
2022-09-10T11:57:55.770Z,11.90
2022-09-10T12:03:25.701Z,11.68
2022-09-10T12:09:03.530Z,10.77
2022-09-10T12:14:15.093Z,11.48
2022-09-10T12:19:40.671Z,11.23
2022-09-10T12:25:00.755Z,12.27
2022-09-10T12:30:25.464Z,11.18
2022-09-10T12:35:35.467Z,10.52
2022-09-10T12:40:49.718Z,10.88
2022-09-10T12:46:06.284Z,11.48
2022-09-10T12:51:23.646Z,10.25
2022-09-10T12:56:40.028Z,10.38
2022-09-10T13:01:48.998Z,10.02
2022-09-10T13:06:59.412Z,10.80
2022-09-10T13:12:14.897Z,11.35
2022-09-10T13:17:35.503Z,11.43
2022-09-10T13:22:55.368Z,10.60
2022-09-10T13:28:28.533Z,10.52
2022-09-10T13:33:37.028Z,10.93
2022-09-10T13:39:16.633Z,10.50
2022-09-10T13:44:39.916Z,12.45
2022-09-10T13:49:55.716Z,13.32
2022-09-10T13:55:01.417Z,11.63
2022-09-10T14:00:08.519Z,11.38
2022-09-10T14:05:31.040Z,12.65
2022-09-10T14:10:48.664Z,11.43
2022-09-10T14:15:55.256Z,9.57
2022-09-10T14:21:04.791Z,9.63
2022-09-10T14:26:15.256Z,8.98
2022-09-10T14:31:30.034Z,9.30
2022-09-10T14:36:34.356Z,9.27
2022-09-10T14:41:36.363Z,10.32
2022-09-10T14:47:05.677Z,11.85
2022-09-10T14:52:08.091Z,10.90
2022-09-10T14:57:15.390Z,10.77
2022-09-10T15:02:20.157Z,9.60
2022-09-10T15:07:23.750Z,9.73
2022-09-10T15:12:28.090Z,9.75
2022-09-10T15:17:36.144Z,7.20
2022-09-10T15:22:40.102Z,7.80
2022-09-10T15:27:47.182Z,8.73
2022-09-10T15:32:54.439Z,6.97
2022-09-10T15:37:56.528Z,8.88
2022-09-10T15:43:00.349Z,9.38
2022-09-10T15:48:03.692Z,9.18
2022-09-10T15:53:09.300Z,9.30
2022-09-10T15:58:16.476Z,8.50
2022-09-10T16:03:18.552Z,10.05
2022-09-10T16:08:20.269Z,10.57
2022-09-10T16:13:22.224Z,11.77
2022-09-10T16:18:24.211Z,11.10
2022-09-10T16:23:31.294Z,11.60
2022-09-10T16:28:38.657Z,12.05
2022-09-10T16:33:43.420Z,11.68
2022-09-10T16:38:55.151Z,13.25
2022-09-10T16:44:00.557Z,14.30
2022-09-10T16:49:02.693Z,13.25
2022-09-10T16:54:10.009Z,13.20
2022-09-10T16:59:17.820Z,13.20
2022-09-10T17:04:28.784Z,14.50
2022-09-10T17:09:30.980Z,15.68
2022-09-10T17:14:33.319Z,15.02
2022-09-10T17:19:34.957Z,14.10
2022-09-10T17:24:36.682Z,12.40
2022-09-10T17:29:38.618Z,11.07
2022-09-10T17:34:40.326Z,10.45
2022-09-10T17:39:42.119Z,9.60
2022-09-10T17:44:47.150Z,9.63
2022-09-10T17:49:52.120Z,9.40
2022-09-10T17:54:54.011Z,9.43
2022-09-10T17:59:58.222Z,11.80
2022-09-10T18:05:00.727Z,12.70
2022-09-10T18:10:09.943Z,14.40
2022-09-10T18:15:11.743Z,15.75
2022-09-10T18:20:18.051Z,16.30
2022-09-10T18:25:25.902Z,17.60
2022-09-10T18:30:32.518Z,16.73
2022-09-10T18:35:36.753Z,17.13
2022-09-10T18:40:43.344Z,18.20
2022-09-10T18:45:46.085Z,16.90
2022-09-10T18:50:50.771Z,16.92
2022-09-10T18:56:00.047Z,15.45
2022-09-10T19:01:11.185Z,20.17
2022-09-10T19:06:20.783Z,18.75
2022-09-10T19:11:24.515Z,17.70
2022-09-10T19:16:30.915Z,17.15
2022-09-10T19:21:35.432Z,17.83
2022-09-10T19:26:37.408Z,19.63
2022-09-10T19:31:47.104Z,28.38
2022-09-10T19:36:52.015Z,20.35
2022-09-10T19:41:56.759Z,19.30
2022-09-10T19:46:58.865Z,18.02
2022-09-10T19:52:04.368Z,19.90
2022-09-10T19:57:08.580Z,18.67
2022-09-10T20:02:12.934Z,20.95
2022-09-10T20:07:15.267Z,18.95
2022-09-10T20:12:22.665Z,17.85
2022-09-10T20:17:26.676Z,21.15
2022-09-10T20:22:30.982Z,17.38
2022-09-10T20:27:35.648Z,15.93
2022-09-10T20:32:37.390Z,15.35
2022-09-10T20:37:39.214Z,15.73
2022-09-10T20:42:41.284Z,12.52
2022-09-10T20:47:45.246Z,15.27
2022-09-10T20:52:50.655Z,12.85
2022-09-10T20:57:54.686Z,12.43
2022-09-10T21:02:59.900Z,11.52
2022-09-10T21:08:03.682Z,11.38
2022-09-10T21:13:05.398Z,12.93
2022-09-10T21:18:09.607Z,11.98
2022-09-10T21:23:11.286Z,11.15
2022-09-10T21:28:12.933Z,10.63
2022-09-10T21:33:17.405Z,9.35
2022-09-10T21:38:21.844Z,8.43
2022-09-10T21:43:29.535Z,6.90
2022-09-10T21:48:36.241Z,7.18
2022-09-10T21:53:41.600Z,7.25
2022-09-10T21:58:45.010Z,7.32
2022-09-10T22:03:47.445Z,7.13
2022-09-10T22:08:54.969Z,7.38
2022-09-10T22:14:02.829Z,6.82
2022-09-10T22:19:09.528Z,5.47
2022-09-10T22:24:14.954Z,4.65
2022-09-10T22:29:18.624Z,4.63
2022-09-10T22:34:23.104Z,4.75
2022-09-10T22:39:25.548Z,4.25
2022-09-10T22:44:31.849Z,3.90
2022-09-10T22:49:34.285Z,3.83
2022-09-10T22:54:36.058Z,3.35
2022-09-10T22:59:40.421Z,4.50
2022-09-10T23:04:44.524Z,4.00
2022-09-10T23:09:48.205Z,3.92
2022-09-10T23:14:49.917Z,3.13
2022-09-10T23:19:52.307Z,3.15
2022-09-10T23:24:54.008Z,3.20
2022-09-10T23:29:56.689Z,3.13
2022-09-10T23:35:01.428Z,3.20
2022-09-10T23:40:11.916Z,3.65
2022-09-10T23:45:16.170Z,4.10
2022-09-10T23:50:19.883Z,4.38
2022-09-10T23:55:21.592Z,4.00
